Time;durP1;ratioP1;P1;durP2;ratioP2;P2;SDS_P1;SDS_P2;PMS_P1;PMS_P2;Temp;Humidity;BMP_temperature;BMP_pressure;BME280_temperature;BME280_humidity;BME280_pressure;Samples;Min_cycle;Max_cycle;Signal;HPM_P1;HPM_P2
2024/01/04 00:01:14;;;;;;;39.90;27.95;;;18.60;63.90;;;;;;5091340;28;20189;-68
2024/01/04 00:03:41;;;;;;;38.03;28.35;;;18.60;63.80;;;;;;5091626;28;20209;-69
2024/01/04 00:06:07;;;;;;;40.28;27.35;;;18.60;63.90;;;;;;5090418;28;20208;-69
2024/01/04 00:08:33;;;;;;;41.60;28.95;;;18.60;63.80;;;;;;5093588;28;20223;-68
2024/01/04 00:11:07;;;;;;;45.55;27.98;;;18.50;63.70;;;;;;5083710;28;20191;-68
2024/01/04 00:13:33;;;;;;;37.63;27.02;;;18.50;63.70;;;;;;5081645;28;20228;-68
2024/01/04 00:15:59;;;;;;;37.65;27.52;;;18.60;63.80;;;;;;5086772;28;20213;-68
2024/01/04 00:18:26;;;;;;;36.80;26.88;;;18.50;63.70;;;;;;5073790;28;20234;-69
2024/01/04 00:20:51;;;;;;;40.20;27.23;;;18.50;63.70;;;;;;5073521;28;20690;-69
2024/01/04 00:23:17;;;;;;;37.20;26.25;;;18.60;63.90;;;;;;5097548;28;20228;-69
2024/01/04 00:25:43;;;;;;;37.15;25.80;;;18.50;63.80;;;;;;5090355;28;20199;-69
2024/01/04 00:28:08;;;;;;;39.03;27.30;;;18.50;63.70;;;;;;5090310;28;20180;-69
2024/01/04 00:30:35;;;;;;;36.30;25.92;;;18.50;63.70;;;;;;5073394;28;20215;-69
2024/01/04 00:33:00;;;;;;;35.75;25.00;;;18.50;63.70;;;;;;5101837;28;20257;-69
2024/01/04 00:35:26;;;;;;;35.80;25.10;;;18.50;63.80;;;;;;5073424;28;20189;-68
2024/01/04 00:37:53;;;;;;;36.97;25.90;;;18.50;63.70;;;;;;5073260;28;20173;-69
2024/01/04 00:40:18;;;;;;;36.50;23.73;;;18.50;63.70;;;;;;5079691;28;20287;-68
2024/01/04 00:42:44;;;;;;;34.53;24.42;;;18.50;63.70;;;;;;5089770;28;20312;-68
2024/01/04 00:45:10;;;;;;;33.00;24.50;;;18.50;63.70;;;;;;5093311;28;20224;-69
2024/01/04 00:47:36;;;;;;;35.75;24.02;;;18.50;63.70;;;;;;5089946;28;20196;-68
2024/01/04 00:50:01;;;;;;;34.38;23.42;;;18.50;63.70;;;;;;5093189;28;20212;-68
2024/01/04 00:52:27;;;;;;;35.28;24.77;;;18.50;63.70;;;;;;5090055;28;20191;-68
2024/01/04 00:54:55;;;;;;;34.42;23.77;;;18.50;63.60;;;;;;5075813;28;20242;-69
2024/01/04 00:57:21;;;;;;;31.10;23.25;;;18.50;63.60;;;;;;5078024;28;20180;-68
2024/01/04 00:59:46;;;;;;;32.63;23.25;;;18.50;63.60;;;;;;5100738;28;20184;-68
2024/01/04 01:02:12;;;;;;;31.67;22.88;;;18.50;63.60;;;;;;5076630;28;20181;-67
2024/01/04 01:04:38;;;;;;;31.45;22.40;;;18.50;63.60;;;;;;5095123;28;20698;-69
2024/01/04 01:07:04;;;;;;;33.58;23.63;;;18.50;63.60;;;;;;5080000;28;20189;-69
2024/01/04 01:09:29;;;;;;;32.35;22.27;;;18.50;63.60;;;;;;5093613;28;20208;-69
2024/01/04 01:11:55;;;;;;;30.38;21.98;;;18.50;63.70;;;;;;5082879;28;20184;-69
2024/01/04 01:14:21;;;;;;;31.17;20.92;;;18.50;63.60;;;;;;5086138;28;20219;-69
2024/01/04 01:16:47;;;;;;;31.83;21.63;;;18.50;63.70;;;;;;5103669;28;20197;-68
2024/01/04 01:19:12;;;;;;;31.05;22.25;;;18.50;63.60;;;;;;5076432;28;20780;-68
2024/01/04 01:21:41;;;;;;;30.00;21.77;;;18.50;63.60;;;;;;5077400;28;20204;-69
2024/01/04 01:24:06;;;;;;;27.27;20.38;;;18.50;63.60;;;;;;5090094;28;20201;-69
2024/01/04 01:26:32;;;;;;;32.45;22.33;;;18.50;63.60;;;;;;5094860;28;20185;-69
2024/01/04 01:28:58;;;;;;;28.08;20.95;;;18.50;63.60;;;;;;5076493;28;20213;-68
2024/01/04 01:31:23;;;;;;;27.98;19.80;;;18.50;63.60;;;;;;5077677;28;20173;-68
2024/01/04 01:33:49;;;;;;;28.77;21.17;;;18.50;63.60;;;;;;5083471;28;20284;-68
2024/01/04 01:36:15;;;;;;;28.02;20.55;;;18.50;63.60;;;;;;5075995;28;20181;-69
2024/01/04 01:38:41;;;;;;;23.92;19.45;;;18.50;63.60;;;;;;5083039;28;20192;-69
2024/01/04 01:41:06;;;;;;;26.83;19.50;;;18.50;63.60;;;;;;5093068;28;20211;-69
2024/01/04 01:43:32;;;;;;;27.15;20.17;;;18.50;63.60;;;;;;5096708;28;20628;-69
2024/01/04 01:45:58;;;;;;;27.20;20.38;;;18.50;63.60;;;;;;5081370;28;20199;-69
2024/01/04 01:48:23;;;;;;;28.17;20.08;;;18.50;63.60;;;;;;5079915;28;20196;-68
2024/01/04 01:50:49;;;;;;;27.20;20.15;;;18.50;63.60;;;;;;5095541;28;20177;-69
2024/01/04 01:53:16;;;;;;;27.08;19.27;;;18.50;63.50;;;;;;5075969;28;20223;-69
2024/01/04 01:55:42;;;;;;;26.98;19.17;;;18.50;63.60;;;;;;5095504;28;20181;-69
2024/01/04 01:58:09;;;;;;;26.83;19.95;;;18.50;63.60;;;;;;5078719;28;20177;-69
2024/01/04 02:00:37;;;;;;;26.52;19.10;;;18.50;63.60;;;;;;5092007;28;20250;-69
2024/01/04 02:03:05;;;;;;;24.60;18.50;;;18.50;63.50;;;;;;5075150;28;20205;-69
2024/01/04 02:05:31;;;;;;;23.35;17.92;;;18.50;63.60;;;;;;5076988;28;20191;-69
2024/01/04 02:07:58;;;;;;;24.50;18.40;;;18.50;63.60;;;;;;5092369;28;20177;-69
2024/01/04 02:10:23;;;;;;;25.02;19.13;;;18.50;63.60;;;;;;5075395;28;20213;-69
2024/01/04 02:12:49;;;;;;;24.95;17.98;;;18.50;63.50;;;;;;5078197;28;20212;-68
2024/01/04 02:15:15;;;;;;;23.65;17.52;;;18.50;63.50;;;;;;5075804;28;20226;-69
2024/01/04 02:17:41;;;;;;;23.67;17.67;;;18.50;63.60;;;;;;5095107;28;20188;-68
2024/01/04 02:20:10;;;;;;;24.48;18.02;;;18.50;64.30;;;;;;5092375;28;20177;-69
2024/01/04 02:22:41;;;;;;;23.80;15.68;;;18.50;63.50;;;;;;5077873;28;20674;-68
2024/01/04 02:25:07;;;;;;;24.23;17.23;;;18.50;63.60;;;;;;5092396;28;20185;-68
2024/01/04 02:27:33;;;;;;;24.17;17.05;;;18.50;63.60;;;;;;5075134;28;20215;-69
2024/01/04 02:29:59;;;;;;;21.83;17.10;;;18.50;63.60;;;;;;5075106;28;20209;-69
2024/01/04 02:32:24;;;;;;;23.52;16.52;;;18.50;63.50;;;;;;5072706;28;20268;-68
2024/01/04 02:34:50;;;;;;;22.33;16.52;;;18.50;63.60;;;;;;5078424;28;20185;-68
2024/01/04 02:37:16;;;;;;;22.77;16.83;;;18.50;63.50;;;;;;5088399;28;20186;-69
2024/01/04 02:39:42;;;;;;;24.13;17.08;;;18.50;63.50;;;;;;5092116;28;20196;-68
2024/01/04 02:42:07;;;;;;;19.70;16.00;;;18.50;63.50;;;;;;5075039;28;20181;-67
2024/01/04 02:44:33;;;;;;;21.88;16.40;;;18.50;63.50;;;;;;5074658;28;20208;-69
2024/01/04 02:46:59;;;;;;;22.88;16.23;;;18.50;63.40;;;;;;5086223;28;20199;-69
2024/01/04 02:49:25;;;;;;;22.08;15.05;;;18.50;63.50;;;;;;5075821;28;20204;-68
2024/01/04 02:51:50;;;;;;;21.00;15.50;;;18.50;63.40;;;;;;5098687;28;20177;-68
2024/01/04 02:54:16;;;;;;;21.15;14.73;;;18.50;63.40;;;;;;5077205;28;20257;-68
2024/01/04 02:56:42;;;;;;;19.65;15.27;;;18.50;63.40;;;;;;5074635;28;20212;-69
2024/01/04 02:59:08;;;;;;;20.98;15.85;;;18.50;63.40;;;;;;5093963;28;20192;-67
2024/01/04 03:01:34;;;;;;;20.52;15.02;;;18.50;63.40;;;;;;5091219;28;20196;-69
2024/01/04 03:03:59;;;;;;;21.75;15.20;;;18.50;63.60;;;;;;5091671;28;20211;-68
2024/01/04 03:06:27;;;;;;;19.05;14.32;;;18.50;63.30;;;;;;5074364;28;20672;-68
2024/01/04 03:08:53;;;;;;;18.92;15.02;;;18.50;63.40;;;;;;5091654;28;20223;-69
2024/01/04 03:11:20;;;;;;;19.40;14.00;;;18.50;63.40;;;;;;5080258;28;20192;-68
2024/01/04 03:13:49;;;;;;;21.15;15.10;;;18.50;63.40;;;;;;5074346;28;20215;-68
2024/01/04 03:16:19;;;;;;;18.45;13.75;;;18.50;63.40;;;;;;5094319;28;20188;-68
2024/01/04 03:18:45;;;;;;;17.90;14.20;;;18.50;63.40;;;;;;5074237;28;20189;-69
2024/01/04 03:21:11;;;;;;;18.10;13.80;;;18.50;63.40;;;;;;5087476;28;20193;-68
2024/01/04 03:23:36;;;;;;;17.60;14.20;;;18.50;63.40;;;;;;5072457;28;20250;-68
2024/01/04 03:26:02;;;;;;;18.98;13.55;;;18.50;63.50;;;;;;5103872;28;20548;-69
2024/01/04 03:28:28;;;;;;;18.92;13.35;;;18.50;63.40;;;;;;5075298;28;20555;-69
2024/01/04 03:30:54;;;;;;;17.30;13.50;;;18.50;63.40;;;;;;5091786;28;20205;-68
2024/01/04 03:33:19;;;;;;;16.60;12.75;;;18.50;63.40;;;;;;5090674;28;20238;-69
2024/01/04 03:35:45;;;;;;;18.38;13.65;;;18.50;63.40;;;;;;5092140;28;20181;-69
2024/01/04 03:38:11;;;;;;;18.33;13.13;;;18.50;63.50;;;;;;5090974;28;20178;-68
2024/01/04 03:40:37;;;;;;;16.80;12.77;;;18.50;63.50;;;;;;5073143;28;20182;-69
2024/01/04 03:43:04;;;;;;;17.63;13.18;;;18.50;63.40;;;;;;5093876;28;20585;-69
2024/01/04 03:45:33;;;;;;;16.00;12.05;;;18.50;63.40;;;;;;5096112;28;20272;-68
2024/01/04 03:48:00;;;;;;;16.52;12.82;;;18.40;63.30;;;;;;5085580;28;20271;-68
2024/01/04 03:50:25;;;;;;;16.77;12.55;;;18.50;63.50;;;;;;5075681;28;20209;-68
2024/01/04 03:52:51;;;;;;;15.68;11.88;;;18.50;63.40;;;;;;5073598;28;20311;-68
2024/01/04 03:55:17;;;;;;;17.63;13.35;;;18.50;63.40;;;;;;5073800;28;20230;-68
2024/01/04 03:57:43;;;;;;;15.95;11.82;;;18.50;63.40;;;;;;5094509;28;20259;-68
2024/01/04 04:00:10;;;;;;;15.93;11.75;;;18.50;63.40;;;;;;5070509;28;20228;-68
2024/01/04 04:02:39;;;;;;;16.45;12.32;;;18.50;63.40;;;;;;5090212;28;20220;-68
2024/01/04 04:05:06;;;;;;;14.60;11.40;;;18.50;63.40;;;;;;5077898;28;20242;-68
2024/01/04 04:07:31;;;;;;;14.30;11.43;;;18.50;63.40;;;;;;5088627;28;20192;-69
2024/01/04 04:09:57;;;;;;;15.88;12.55;;;18.50;63.40;;;;;;5084028;28;20201;-68
2024/01/04 04:12:24;;;;;;;14.75;10.98;;;18.50;63.40;;;;;;5073527;28;20177;-68
2024/01/04 04:14:51;;;;;;;15.38;11.60;;;18.40;63.20;;;;;;5090480;28;20211;-68
2024/01/04 04:17:24;;;;;;;13.32;10.93;;;18.50;63.40;;;;;;5090547;28;20176;-69
2024/01/04 04:19:51;;;;;;;14.65;10.98;;;18.40;63.30;;;;;;5081679;28;20180;-68
2024/01/04 04:22:16;;;;;;;14.50;11.07;;;18.50;63.40;;;;;;5073400;28;20184;-68
2024/01/04 04:24:42;;;;;;;13.85;9.98;;;18.50;63.40;;;;;;5091358;28;20250;-68
2024/01/04 04:27:08;;;;;;;14.82;11.50;;;18.40;63.30;;;;;;5076977;28;20196;-68
2024/01/04 04:29:33;;;;;;;14.75;10.52;;;18.40;63.30;;;;;;5075596;28;20255;-68
2024/01/04 04:31:59;;;;;;;14.48;10.98;;;18.50;63.40;;;;;;5084338;28;20243;-69
2024/01/04 04:34:25;;;;;;;14.40;11.07;;;18.40;63.30;;;;;;5091603;28;20196;-68
2024/01/04 04:36:50;;;;;;;15.38;10.73;;;18.50;63.40;;;;;;5094167;28;20635;-68
2024/01/04 04:39:16;;;;;;;14.25;10.60;;;18.50;63.40;;;;;;5077370;28;20216;-68
2024/01/04 04:41:42;;;;;;;13.60;10.30;;;18.50;63.30;;;;;;5095481;28;20184;-68
2024/01/04 04:44:08;;;;;;;14.45;10.60;;;18.40;63.30;;;;;;5094353;28;20205;-69
2024/01/04 04:46:33;;;;;;;14.15;10.32;;;18.50;63.30;;;;;;5077036;28;20189;-69
2024/01/04 04:48:59;;;;;;;12.48;9.50;;;18.40;63.20;;;;;;5077189;28;20217;-69
2024/01/04 04:51:25;;;;;;;13.30;10.45;;;18.50;63.30;;;;;;5091143;28;20231;-69
2024/01/04 04:53:51;;;;;;;11.45;8.90;;;18.50;63.30;;;;;;5093860;28;20204;-69
2024/01/04 04:56:18;;;;;;;11.52;9.60;;;18.50;63.30;;;;;;5095522;28;20177;-68
2024/01/04 04:58:44;;;;;;;12.55;9.43;;;18.40;63.20;;;;;;5110282;28;20196;-68
2024/01/04 05:01:09;;;;;;;12.25;9.95;;;18.40;63.20;;;;;;5079988;28;20173;-69
2024/01/04 05:03:36;;;;;;;10.60;8.57;;;18.50;63.30;;;;;;5093561;28;20212;-68
2024/01/04 05:06:02;;;;;;;12.82;9.65;;;18.50;63.30;;;;;;5093740;28;20177;-69
2024/01/04 05:08:29;;;;;;;12.80;9.32;;;18.40;63.20;;;;;;5095060;28;20181;-68
2024/01/04 05:10:55;;;;;;;12.25;9.70;;;18.50;63.30;;;;;;5093523;28;20177;-69
2024/01/04 05:13:20;;;;;;;12.05;9.00;;;18.40;63.20;;;;;;5093447;28;20235;-69
2024/01/04 05:15:46;;;;;;;11.52;9.07;;;18.40;63.30;;;;;;5078267;28;20561;-68
2024/01/04 05:18:12;;;;;;;12.75;9.35;;;18.40;63.30;;;;;;5076671;28;20177;-69
2024/01/04 05:20:37;;;;;;;10.98;8.82;;;18.40;63.20;;;;;;5093314;28;20652;-69
2024/01/04 05:23:03;;;;;;;11.45;9.20;;;18.40;63.30;;;;;;5093486;28;20209;-68
2024/01/04 05:25:29;;;;;;;11.77;8.48;;;18.40;63.40;;;;;;5109507;27;20276;-68
2024/01/04 05:27:55;;;;;;;10.93;9.02;;;18.50;63.40;;;;;;5076838;28;20203;-69
2024/01/04 05:30:20;;;;;;;10.77;8.27;;;18.40;63.20;;;;;;5094420;28;20201;-68
2024/01/04 05:32:47;;;;;;;9.85;8.43;;;18.50;63.30;;;;;;5075468;28;20585;-69
2024/01/04 05:35:13;;;;;;;10.75;8.13;;;18.40;63.30;;;;;;5093118;28;20193;-69
2024/01/04 05:37:39;;;;;;;9.30;7.90;;;18.40;63.30;;;;;;5092804;28;20197;-68
2024/01/04 05:40:06;;;;;;;10.70;8.70;;;18.40;63.30;;;;;;5092491;28;20220;-68
2024/01/04 05:42:32;;;;;;;11.38;8.07;;;18.40;63.20;;;;;;5107070;28;20543;-69
2024/01/04 05:44:58;;;;;;;10.18;8.27;;;18.50;63.30;;;;;;5076067;28;20191;-69
2024/01/04 05:47:23;;;;;;;11.25;8.75;;;18.50;63.30;;;;;;5092718;28;20655;-69
2024/01/04 05:49:49;;;;;;;9.48;7.80;;;18.40;63.30;;;;;;5090507;28;20295;-69
2024/01/04 05:52:15;;;;;;;10.60;8.00;;;18.50;64.10;;;;;;5075868;28;20215;-69
2024/01/04 05:54:41;;;;;;;9.80;7.63;;;18.50;63.30;;;;;;5074076;28;20565;-69
2024/01/04 05:57:07;;;;;;;8.95;7.80;;;18.50;63.30;;;;;;5076315;28;20172;-69
2024/01/04 05:59:33;;;;;;;9.57;7.32;;;18.50;64.10;;;;;;5105426;28;20287;-68
2024/01/04 06:01:59;;;;;;;9.25;7.18;;;18.50;63.30;;;;;;5075615;28;20327;-68
2024/01/04 06:04:25;;;;;;;9.27;7.53;;;18.50;63.30;;;;;;5071837;28;20208;-69
2024/01/04 06:06:51;;;;;;;9.63;7.57;;;18.40;63.20;;;;;;5075356;28;20193;-69
2024/01/04 06:09:20;;;;;;;9.20;7.28;;;18.40;63.20;;;;;;5093027;28;20224;-68
2024/01/04 06:11:47;;;;;;;8.50;7.05;;;18.50;63.30;;;;;;5092430;28;20196;-69
2024/01/04 06:14:13;;;;;;;8.68;6.95;;;18.40;63.20;;;;;;5091223;28;20215;-69
2024/01/04 06:16:39;;;;;;;8.88;7.50;;;18.40;63.20;;;;;;5093259;28;20188;-68
2024/01/04 06:19:05;;;;;;;9.98;6.97;;;18.40;63.20;;;;;;5092971;28;20193;-69
2024/01/04 06:21:30;;;;;;;9.80;7.40;;;18.50;63.30;;;;;;5092011;28;20184;-69
2024/01/04 06:23:58;;;;;;;9.60;7.07;;;18.40;63.20;;;;;;5075660;28;20201;-67
2024/01/04 06:26:24;;;;;;;8.45;6.85;;;18.40;63.30;;;;;;5108845;28;20271;-67
2024/01/04 06:28:50;;;;;;;8.45;6.85;;;18.40;63.20;;;;;;5091094;28;20278;-68
2024/01/04 06:31:16;;;;;;;8.18;6.35;;;18.40;63.20;;;;;;5109387;27;20181;-67
2024/01/04 06:33:42;;;;;;;7.65;6.20;;;18.40;63.20;;;;;;5108525;28;20220;-68
2024/01/04 06:36:08;;;;;;;7.95;7.15;;;18.40;63.20;;;;;;5092142;28;20196;-68
2024/01/04 06:38:36;;;;;;;8.45;6.82;;;18.40;63.20;;;;;;5091588;28;20199;-67
2024/01/04 06:41:03;;;;;;;9.60;6.97;;;18.40;63.20;;;;;;5091595;28;20227;-68
2024/01/04 06:43:30;;;;;;;9.45;6.70;;;18.40;63.20;;;;;;5093086;28;20213;-68
2024/01/04 06:45:59;;;;;;;7.93;6.07;;;18.50;63.30;;;;;;5074966;28;20711;-68
2024/01/04 06:48:27;;;;;;;7.22;6.22;;;18.50;63.30;;;;;;5092120;28;20173;-68
2024/01/04 06:50:53;;;;;;;6.90;6.00;;;18.40;63.20;;;;;;5091117;28;20205;-68
2024/01/04 06:53:18;;;;;;;7.18;5.60;;;18.40;63.20;;;;;;5099426;28;20372;-67
2024/01/04 06:55:44;;;;;;;7.82;6.32;;;18.40;63.20;;;;;;5092601;28;20219;-67
2024/01/04 06:58:10;;;;;;;6.97;6.00;;;18.40;63.20;;;;;;5081111;28;20227;-67
2024/01/04 07:00:36;;;;;;;8.25;6.53;;;18.40;63.20;;;;;;5082484;28;20196;-67
2024/01/04 07:03:03;;;;;;;7.72;5.88;;;18.40;63.20;;;;;;5091407;28;20680;-67
2024/01/04 07:05:30;;;;;;;6.63;5.80;;;18.40;63.20;;;;;;5098999;28;20196;-67
2024/01/04 07:07:56;;;;;;;7.45;5.82;;;18.40;63.20;;;;;;5091290;28;20197;-67
2024/01/04 07:10:22;;;;;;;7.47;6.00;;;18.40;63.20;;;;;;5074138;28;20231;-67
2024/01/04 07:12:48;;;;;;;8.77;6.30;;;18.40;63.30;;;;;;5087067;28;20248;-67
2024/01/04 07:15:14;;;;;;;7.15;5.50;;;18.40;63.20;;;;;;5091351;28;20184;-67
2024/01/04 07:17:40;;;;;;;6.25;5.00;;;18.40;63.20;;;;;;5099543;28;20185;-67
2024/01/04 07:20:07;;;;;;;7.32;5.65;;;18.40;63.20;;;;;;5106605;28;20185;-67
2024/01/04 07:22:33;;;;;;;7.30;5.78;;;18.40;63.20;;;;;;5098709;28;20211;-67
2024/01/04 07:24:59;;;;;;;6.43;5.10;;;18.40;63.20;;;;;;5094900;28;20190;-67
2024/01/04 07:27:27;;;;;;;6.43;5.35;;;18.40;63.20;;;;;;5095777;28;20189;-67
2024/01/04 07:29:54;;;;;;;7.00;6.05;;;18.40;64.00;;;;;;5084426;28;20241;-66
2024/01/04 07:32:20;;;;;;;7.30;5.25;;;18.40;63.20;;;;;;5079297;28;20181;-67
2024/01/04 07:34:46;;;;;;;6.25;5.22;;;18.40;63.20;;;;;;5098603;28;20185;-67
2024/01/04 07:37:13;;;;;;;6.68;5.22;;;18.40;63.20;;;;;;5091196;28;20184;-67
2024/01/04 07:39:41;;;;;;;6.28;5.07;;;18.40;63.20;;;;;;5090980;28;20196;-66
2024/01/04 07:42:09;;;;;;;6.57;4.68;;;18.40;63.20;;;;;;5090583;28;20193;-67
2024/01/04 07:44:35;;;;;;;5.53;4.70;;;18.40;63.20;;;;;;5074162;28;20295;-67
2024/01/04 07:47:01;;;;;;;5.90;4.82;;;18.40;63.20;;;;;;5075491;28;20300;-67
2024/01/04 07:49:27;;;;;;;5.57;4.53;;;18.40;63.20;;;;;;5090731;28;20301;-67
2024/01/04 07:51:53;;;;;;;6.97;5.32;;;18.40;63.20;;;;;;5092284;28;20225;-67
2024/01/04 07:54:22;;;;;;;6.18;4.10;;;18.40;63.20;;;;;;5101124;28;20253;-67
2024/01/04 07:56:49;;;;;;;6.38;4.40;;;18.40;63.20;;;;;;5099223;28;20267;-67
2024/01/04 07:59:14;;;;;;;5.85;5.05;;;18.40;63.20;;;;;;5078355;28;20292;-67
2024/01/04 08:01:40;;;;;;;6.60;4.93;;;18.40;63.20;;;;;;5076572;28;20222;-67
2024/01/04 08:04:06;;;;;;;6.45;5.03;;;18.40;63.20;;;;;;5064988;28;20213;-67
2024/01/04 08:06:32;;;;;;;5.85;4.30;;;18.40;63.20;;;;;;5090453;28;20200;-67
2024/01/04 08:08:58;;;;;;;5.97;4.40;;;18.40;63.20;;;;;;5073364;28;20366;-67
2024/01/04 08:11:23;;;;;;;6.10;4.75;;;18.40;63.20;;;;;;5073734;28;20188;-67
2024/01/04 08:13:51;;;;;;;4.93;4.28;;;18.40;63.20;;;;;;5071037;28;20226;-67
2024/01/04 08:16:18;;;;;;;6.03;4.35;;;18.40;63.20;;;;;;5101103;28;20195;-67
2024/01/04 08:18:44;;;;;;;5.60;4.40;;;18.40;63.20;;;;;;5092027;28;20660;-67
2024/01/04 08:21:10;;;;;;;5.05;4.38;;;18.40;63.20;;;;;;5073372;28;20188;-67
2024/01/04 08:23:40;;;;;;;5.35;4.32;;;18.40;63.20;;;;;;5098602;28;20208;-67
2024/01/04 08:26:06;;;;;;;5.93;4.57;;;18.40;63.20;;;;;;5100145;28;20191;-67
2024/01/04 08:28:32;;;;;;;6.85;4.70;;;18.40;63.20;;;;;;5091456;28;20181;-68
2024/01/04 08:30:59;;;;;;;4.97;4.47;;;18.40;63.20;;;;;;5080424;28;20223;-67
2024/01/04 08:33:25;;;;;;;5.13;4.20;;;18.40;63.20;;;;;;5097126;28;20201;-67
2024/01/04 08:35:50;;;;;;;4.72;3.70;;;18.40;63.20;;;;;;5092109;28;20272;-67
2024/01/04 08:38:16;;;;;;;4.53;3.75;;;18.40;63.20;;;;;;5102980;28;20203;-67
2024/01/04 08:40:42;;;;;;;6.40;4.10;;;18.40;63.20;;;;;;5097203;28;20196;-67
2024/01/04 08:43:08;;;;;;;5.00;4.20;;;18.40;63.20;;;;;;5090890;28;20672;-67
2024/01/04 08:45:34;;;;;;;5.90;4.13;;;18.40;63.20;;;;;;5089946;28;20240;-67
2024/01/04 08:48:00;;;;;;;5.57;4.07;;;18.40;63.20;;;;;;5091792;28;20283;-67
2024/01/04 08:50:25;;;;;;;4.20;3.58;;;18.40;63.20;;;;;;5094584;28;20216;-67
2024/01/04 08:52:51;;;;;;;6.18;4.15;;;18.40;63.20;;;;;;5088712;28;20208;-67
2024/01/04 08:55:19;;;;;;;4.07;3.22;;;18.40;63.20;;;;;;5117746;28;20206;-67
2024/01/04 08:57:46;;;;;;;4.65;3.85;;;18.40;63.20;;;;;;5091824;28;20188;-68
2024/01/04 09:00:14;;;;;;;4.97;4.35;;;18.40;63.10;;;;;;5083564;28;20185;-67
2024/01/04 09:02:41;;;;;;;4.88;3.88;;;18.40;64.00;;;;;;5103189;28;20204;-67
2024/01/04 09:05:08;;;;;;;3.92;3.35;;;18.40;63.00;;;;;;5104391;28;20193;-67
2024/01/04 09:07:34;;;;;;;4.00;3.55;;;18.40;63.10;;;;;;5072945;28;20215;-67
2024/01/04 09:10:00;;;;;;;4.80;3.70;;;18.40;63.10;;;;;;5078026;28;20204;-67
2024/01/04 09:12:28;;;;;;;4.35;3.40;;;18.40;63.00;;;;;;5082768;28;20652;-67
2024/01/04 09:14:54;;;;;;;4.00;3.28;;;18.50;63.10;;;;;;5090528;28;20252;-67
2024/01/04 09:17:20;;;;;;;4.30;3.72;;;18.40;62.90;;;;;;5087467;28;20195;-68
2024/01/04 09:19:49;;;;;;;3.90;3.42;;;18.40;62.90;;;;;;5101861;28;20185;-67
2024/01/04 09:22:15;;;;;;;6.07;3.58;;;18.40;62.90;;;;;;5100945;28;20185;-67
2024/01/04 09:24:41;;;;;;;5.82;3.67;;;18.50;63.00;;;;;;5106223;28;20223;-67
2024/01/04 09:27:07;;;;;;;3.80;3.00;;;18.40;63.70;;;;;;5090142;28;20216;-67
2024/01/04 09:29:33;;;;;;;4.15;3.15;;;18.40;62.80;;;;;;5099458;28;20272;-67
2024/01/04 09:32:00;;;;;;;3.88;3.28;;;18.50;63.00;;;;;;5090974;28;20280;-67
2024/01/04 09:34:26;;;;;;;3.45;3.05;;;18.50;63.00;;;;;;5087790;28;20211;-67
2024/01/04 09:36:54;;;;;;;4.15;3.13;;;18.40;62.90;;;;;;5097014;28;20185;-67
2024/01/04 09:39:20;;;;;;;4.93;3.45;;;18.50;63.00;;;;;;5093483;28;20197;-69
2024/01/04 09:41:48;;;;;;;3.83;3.17;;;18.50;62.90;;;;;;5100011;28;20191;-68
2024/01/04 09:44:14;;;;;;;4.03;3.17;;;18.50;63.00;;;;;;5116508;27;20205;-67
2024/01/04 09:46:42;;;;;;;4.85;3.38;;;18.50;63.00;;;;;;5092680;28;20220;-68
2024/01/04 09:49:11;;;;;;;4.35;3.50;;;18.50;63.00;;;;;;5091333;28;20251;-68
2024/01/04 09:51:39;;;;;;;3.95;3.40;;;18.50;63.00;;;;;;5091597;28;20218;-68
2024/01/04 09:54:09;;;;;;;4.05;3.10;;;18.50;62.90;;;;;;5080648;28;20201;-68
2024/01/04 09:56:43;;;;;;;5.00;3.33;;;18.50;62.90;;;;;;5094520;28;20197;-67
2024/01/04 09:59:10;;;;;;;3.63;2.97;;;18.50;63.00;;;;;;5091696;28;20188;-66
2024/01/04 10:01:38;;;;;;;3.63;3.00;;;18.50;62.90;;;;;;5095948;28;20180;-67
2024/01/04 10:04:11;;;;;;;3.92;3.00;;;18.50;62.90;;;;;;5111315;28;20208;-68
2024/01/04 10:06:42;;;;;;;3.85;3.25;;;18.50;62.90;;;;;;5105780;28;20196;-68
2024/01/04 10:09:32;;;;;;;4.63;3.60;;;18.50;62.90;;;;;;5099751;28;20297;-67
2024/01/04 10:11:57;;;;;;;3.35;2.78;;;18.50;62.80;;;;;;5120996;27;20196;-68
2024/01/04 10:14:30;;;;;;;3.10;2.78;;;18.50;62.90;;;;;;5075499;28;20220;-67
2024/01/04 10:16:56;;;;;;;4.25;3.28;;;18.50;62.90;;;;;;5098156;28;20196;-68
2024/01/04 10:19:23;;;;;;;3.67;3.00;;;18.50;62.90;;;;;;5101968;28;20176;-68
2024/01/04 10:21:50;;;;;;;3.85;2.80;;;18.50;62.80;;;;;;5093489;28;20233;-67
2024/01/04 10:24:25;;;;;;;3.13;2.80;;;18.50;62.90;;;;;;5090691;28;20235;-67
2024/01/04 10:26:57;;;;;;;3.78;2.58;;;18.50;62.90;;;;;;5088761;28;20192;-67
2024/01/04 10:29:28;;;;;;;4.30;2.97;;;18.50;62.90;;;;;;5075752;28;20217;-68
2024/01/04 10:32:04;;;;;;;3.65;2.55;;;18.50;62.90;;;;;;5097621;28;20188;-67
2024/01/04 10:34:34;;;;;;;3.10;2.78;;;18.50;62.90;;;;;;5091259;28;20203;-68
2024/01/04 10:37:26;;;;;;;4.82;3.05;;;18.50;62.90;;;;;;5087446;28;20194;-68
2024/01/04 10:39:57;;;;;;;4.05;3.10;;;18.50;62.90;;;;;;5100240;28;20202;-68
2024/01/04 10:42:24;;;;;;;3.78;2.90;;;18.50;62.80;;;;;;5093024;28;20644;-68
2024/01/04 10:44:56;;;;;;;4.22;2.92;;;18.50;62.90;;;;;;5093325;28;20199;-67
2024/01/04 10:47:24;;;;;;;4.57;2.85;;;18.50;63.00;;;;;;5097065;28;20184;-68
2024/01/04 10:49:58;;;;;;;3.83;2.70;;;18.60;63.20;;;;;;5091529;28;20220;-67
2024/01/04 10:52:30;;;;;;;3.75;3.00;;;18.60;63.20;;;;;;5107029;28;20228;-68
2024/01/04 10:54:58;;;;;;;2.90;2.58;;;18.60;63.10;;;;;;5097094;28;20188;-67
2024/01/04 10:57:28;;;;;;;3.53;2.72;;;18.50;63.10;;;;;;5079861;28;20190;-67
2024/01/04 10:59:55;;;;;;;2.63;2.20;;;18.60;63.10;;;;;;5091521;28;20189;-68
2024/01/04 11:02:23;;;;;;;3.72;2.58;;;18.60;63.10;;;;;;5091165;28;20184;-67
2024/01/04 11:04:50;;;;;;;2.97;2.53;;;18.50;63.00;;;;;;5081514;28;20278;-67
2024/01/04 11:07:17;;;;;;;3.45;2.88;;;18.50;62.90;;;;;;5093092;28;20226;-67
2024/01/04 11:09:44;;;;;;;3.20;2.80;;;18.60;63.10;;;;;;5076328;28;20221;-67
2024/01/04 11:12:10;;;;;;;2.50;2.10;;;18.50;63.00;;;;;;5097283;28;20668;-67
2024/01/04 11:14:36;;;;;;;3.30;2.40;;;18.50;63.00;;;;;;5079231;28;20216;-67
2024/01/04 11:17:32;;;;;;;3.67;2.70;;;18.50;63.10;;;;;;5108095;28;20189;-67
2024/01/04 11:20:30;;;;;;;2.60;2.30;;;18.50;63.00;;;;;;5079513;28;20280;-68
2024/01/04 11:23:11;;;;;;;3.22;2.42;;;18.50;63.00;;;;;;5079070;28;20212;-68
2024/01/04 11:26:01;;;;;;;2.65;2.45;;;18.50;63.00;;;;;;5096487;28;20192;-67
2024/01/04 11:28:28;;;;;;;2.60;2.40;;;18.50;63.00;;;;;;5090683;28;20279;-67
2024/01/04 11:30:54;;;;;;;3.45;2.25;;;18.60;63.10;;;;;;5091727;28;20262;-67
2024/01/04 11:33:26;;;;;;;2.33;2.13;;;18.50;62.90;;;;;;5099569;28;20224;-68
2024/01/04 11:35:52;;;;;;;3.97;2.50;;;18.50;63.00;;;;;;5079055;28;20276;-67
2024/01/04 11:38:25;;;;;;;2.85;2.47;;;18.50;63.30;;;;;;5100901;28;20269;-68
2024/01/04 11:40:51;;;;;;;4.28;2.50;;;18.50;63.20;;;;;;5087169;28;20187;-67
2024/01/04 11:43:18;;;;;;;2.40;2.20;;;18.50;63.00;;;;;;5095508;28;20554;-67
2024/01/04 11:45:44;;;;;;;3.17;1.85;;;18.50;63.00;;;;;;5096522;28;20191;-68
2024/01/04 11:48:11;;;;;;;2.85;2.28;;;18.50;63.00;;;;;;5107950;28;20196;-68
2024/01/04 11:50:48;;;;;;;4.00;2.50;;;18.60;63.20;;;;;;5095441;28;20262;-68
2024/01/04 11:53:16;;;;;;;2.65;2.38;;;18.50;63.10;;;;;;5087724;28;20204;-68
2024/01/04 11:55:43;;;;;;;2.90;2.53;;;18.60;63.40;;;;;;5074817;28;20197;-68
2024/01/04 11:58:24;;;;;;;3.08;2.38;;;18.60;63.40;;;;;;5097335;28;20197;-67
2024/01/04 12:00:52;;;;;;;3.25;2.35;;;18.60;63.20;;;;;;5108471;27;20203;-67
2024/01/04 12:03:22;;;;;;;3.08;2.10;;;18.60;63.30;;;;;;5092314;28;20213;-68
2024/01/04 12:05:53;;;;;;;2.55;2.10;;;18.60;63.20;;;;;;5090241;28;20196;-67
2024/01/04 12:08:30;;;;;;;3.25;2.28;;;18.60;63.20;;;;;;5092533;28;20189;-67
2024/01/04 12:11:01;;;;;;;4.55;2.47;;;18.50;63.10;;;;;;5090199;28;20593;-68
2024/01/04 12:13:27;;;;;;;2.95;2.22;;;18.60;63.30;;;;;;5095280;28;20261;-67
2024/01/04 12:15:53;;;;;;;3.53;2.40;;;18.60;63.30;;;;;;5090638;28;20184;-67
2024/01/04 12:18:20;;;;;;;2.53;2.05;;;18.60;63.20;;;;;;5101287;28;20189;-68
2024/01/04 12:20:47;;;;;;;2.50;2.30;;;18.60;63.10;;;;;;5117730;28;20274;-68
2024/01/04 12:23:13;;;;;;;2.92;2.30;;;18.60;63.10;;;;;;5098338;28;20299;-67
2024/01/04 12:25:40;;;;;;;2.35;2.00;;;18.50;63.00;;;;;;5094409;28;20192;-68
2024/01/04 12:28:08;;;;;;;2.25;2.05;;;18.60;63.10;;;;;;5081956;28;20196;-67
2024/01/04 12:30:36;;;;;;;2.20;2.00;;;18.60;63.20;;;;;;5094129;28;20219;-68
2024/01/04 12:33:03;;;;;;;2.15;1.95;;;18.60;63.10;;;;;;5096020;28;20201;-67
2024/01/04 12:35:29;;;;;;;2.17;1.98;;;18.50;63.00;;;;;;5089791;28;20185;-67
2024/01/04 12:38:13;;;;;;;4.00;2.15;;;18.60;63.00;;;;;;5076466;28;20199;-68